createdAt,value
2023-04-18T00:00:16.408Z,7.8259
2023-04-18T00:01:18.055Z,7.8049
2023-04-18T00:02:19.875Z,7.8099
2023-04-18T00:03:21.561Z,7.8127
2023-04-18T00:04:23.266Z,7.8168
2023-04-18T00:05:24.812Z,7.8333
2023-04-18T00:06:26.292Z,7.8224
2023-04-18T00:07:27.932Z,7.8325
2023-04-18T00:08:29.625Z,7.8600
2023-04-18T00:09:31.262Z,7.8959
2023-04-18T00:10:32.939Z,7.9212
2023-04-18T00:11:34.542Z,7.9442
2023-04-18T00:12:36.184Z,7.9041
2023-04-18T00:13:37.836Z,7.9138
2023-04-18T00:14:39.454Z,7.9298
2023-04-18T00:15:41.094Z,7.9456
2023-04-18T00:16:42.752Z,7.9573
2023-04-18T00:17:44.445Z,7.9584
2023-04-18T00:18:46.157Z,8.0128
2023-04-18T00:19:47.737Z,8.0218
2023-04-18T00:20:49.452Z,8.0488
2023-04-18T00:21:51.015Z,8.0779
2023-04-18T00:22:52.689Z,8.0627
2023-04-18T00:23:54.391Z,8.0504
2023-04-18T00:24:56.014Z,8.0627
2023-04-18T00:25:57.643Z,8.0492
2023-04-18T00:26:59.250Z,8.0713
2023-04-18T00:28:00.975Z,8.0099
2023-04-18T00:29:02.618Z,8.0142
2023-04-18T00:30:04.210Z,8.0477
2023-04-18T00:31:05.830Z,8.0319
2023-04-18T00:32:07.413Z,8.0272
2023-04-18T00:33:09.044Z,8.0216
2023-04-18T00:34:10.728Z,8.0112
2023-04-18T00:35:12.401Z,8.0336
2023-04-18T00:36:14.004Z,8.0510
2023-04-18T00:37:15.624Z,8.0444
2023-04-18T00:38:17.294Z,7.9797
2023-04-18T00:39:18.945Z,7.9896
2023-04-18T00:40:20.578Z,7.9914
2023-04-18T00:41:22.234Z,8.0029
2023-04-18T00:42:23.870Z,8.0046
2023-04-18T00:43:25.514Z,8.0216
2023-04-18T00:44:27.171Z,8.0701
2023-04-18T00:45:28.794Z,8.0878
2023-04-18T00:46:30.553Z,8.0693
2023-04-18T00:47:32.120Z,8.0531
2023-04-18T00:48:33.732Z,8.0724
2023-04-18T00:49:35.421Z,8.0693
2023-04-18T00:50:37.021Z,8.0755
2023-04-18T00:51:38.675Z,8.0691
2023-04-18T00:52:40.315Z,8.0976
2023-04-18T00:53:42.005Z,8.0886
2023-04-18T00:54:43.638Z,8.1287
2023-04-18T00:55:45.244Z,8.1434
2023-04-18T00:56:46.905Z,8.1317
2023-04-18T00:57:48.513Z,8.0853
2023-04-18T00:58:50.157Z,8.1096
2023-04-18T00:59:51.832Z,8.1363
2023-04-18T01:00:53.454Z,8.1574
2023-04-18T01:01:55.232Z,8.1632
2023-04-18T01:02:56.860Z,8.1385
2023-04-18T01:03:58.527Z,8.1038
2023-04-18T01:05:00.060Z,8.1276
2023-04-18T01:06:02.666Z,8.1467
2023-04-18T01:07:03.373Z,8.1147
2023-04-18T01:08:05.062Z,8.1128
2023-04-18T01:09:06.589Z,8.1252
2023-04-18T01:10:08.276Z,8.1675
2023-04-18T01:11:09.881Z,8.2299
2023-04-18T01:12:11.521Z,8.1835
2023-04-18T01:13:13.160Z,8.1714
2023-04-18T01:14:15.093Z,8.1734
2023-04-18T01:15:16.455Z,8.2086
2023-04-18T01:16:18.105Z,8.2275
2023-04-18T01:17:19.757Z,8.2404
2023-04-18T01:18:21.385Z,8.2583
2023-04-18T01:19:23.025Z,8.2768
2023-04-18T01:20:24.689Z,8.2630
2023-04-18T01:21:26.286Z,8.1993
2023-04-18T01:22:27.931Z,8.1934
2023-04-18T01:23:29.588Z,8.1769
2023-04-18T01:24:31.242Z,8.1373
2023-04-18T01:25:32.890Z,8.1157
2023-04-18T01:26:34.482Z,8.1239
2023-04-18T01:27:36.142Z,8.1683
2023-04-18T01:28:37.809Z,8.1870
2023-04-18T01:29:39.457Z,8.1814
2023-04-18T01:30:41.060Z,8.1221
2023-04-18T01:31:42.899Z,8.1077
2023-04-18T01:32:44.489Z,8.1319
2023-04-18T01:33:46.118Z,8.1691
2023-04-18T01:34:47.773Z,8.1591
2023-04-18T01:35:49.385Z,8.1521
2023-04-18T01:36:51.035Z,8.1882
2023-04-18T01:37:52.665Z,8.2172
2023-04-18T01:38:54.301Z,8.1837
2023-04-18T01:39:55.989Z,8.1568
2023-04-18T01:40:57.581Z,8.1050
2023-04-18T01:41:59.222Z,8.1211
2023-04-18T01:43:00.890Z,8.1574
2023-04-18T01:44:02.538Z,8.1469
2023-04-18T01:45:04.208Z,8.1895
2023-04-18T01:46:05.848Z,8.1712
2023-04-18T01:47:07.466Z,8.1350
2023-04-18T01:48:09.139Z,8.1321
2023-04-18T01:49:10.775Z,8.1667
2023-04-18T01:50:12.480Z,8.1533
2023-04-18T01:51:14.023Z,8.1046
2023-04-18T01:52:15.900Z,8.0808
2023-04-18T01:53:17.337Z,8.0874
2023-04-18T01:54:18.999Z,8.0691
2023-04-18T01:55:20.684Z,8.0693
2023-04-18T01:56:22.265Z,8.0294
2023-04-18T01:57:23.920Z,8.0500
2023-04-18T01:58:25.576Z,8.0379
2023-04-18T01:59:27.238Z,8.0294
2023-04-18T02:00:28.920Z,8.0533
2023-04-18T02:01:30.513Z,8.0652
2023-04-18T02:02:32.380Z,8.0839
2023-04-18T02:03:34.074Z,8.1071
2023-04-18T02:04:35.560Z,8.1482
2023-04-18T02:05:37.242Z,8.1243
2023-04-18T02:06:38.810Z,8.0726
2023-04-18T02:07:40.492Z,8.0568
2023-04-18T02:08:42.119Z,8.0459
2023-04-18T02:09:43.813Z,8.0726
2023-04-18T02:10:45.434Z,8.0348
2023-04-18T02:11:47.106Z,8.0313
2023-04-18T02:12:48.697Z,8.0553
2023-04-18T02:13:50.335Z,8.0831
2023-04-18T02:14:51.970Z,8.0654
2023-04-18T02:15:53.634Z,8.0929
2023-04-18T02:16:55.362Z,8.0863
2023-04-18T02:17:56.947Z,8.0876
2023-04-18T02:18:58.615Z,8.0642
2023-04-18T02:20:00.193Z,8.0681
2023-04-18T02:21:01.877Z,8.0278
2023-04-18T02:22:03.451Z,8.0257
2023-04-18T02:23:05.109Z,8.0356
2023-04-18T02:24:06.738Z,8.0393
2023-04-18T02:25:08.384Z,8.0524
2023-04-18T02:26:10.107Z,8.0767
2023-04-18T02:27:11.716Z,8.0874
2023-04-18T02:28:13.291Z,8.0555
2023-04-18T02:29:14.942Z,8.0586
2023-04-18T02:30:16.692Z,8.0693
2023-04-18T02:31:18.317Z,8.0430
2023-04-18T02:32:19.912Z,8.0498
2023-04-18T02:33:21.539Z,8.0584
2023-04-18T02:34:23.256Z,8.0640
2023-04-18T02:35:24.845Z,8.0716
2023-04-18T02:36:26.514Z,8.0863
2023-04-18T02:37:28.112Z,8.0917
2023-04-18T02:38:29.828Z,8.0972
2023-04-18T02:39:31.416Z,8.0985
2023-04-18T02:40:33.030Z,8.1219
2023-04-18T02:41:34.767Z,8.1340
2023-04-18T02:42:36.346Z,8.1342
2023-04-18T02:43:38.054Z,8.0923
2023-04-18T02:44:39.616Z,8.0660
2023-04-18T02:45:41.431Z,8.0631
2023-04-18T02:46:42.879Z,8.0728
2023-04-18T02:47:54.785Z,8.1159
2023-04-18T02:48:46.118Z,8.1137
2023-04-18T02:49:47.764Z,8.1093
2023-04-18T02:50:49.396Z,8.1102
2023-04-18T02:51:51.071Z,8.1239
2023-04-18T02:52:52.650Z,8.1274
2023-04-18T02:53:54.295Z,8.1576
2023-04-18T02:54:55.983Z,8.1623
2023-04-18T02:55:57.592Z,8.1432
2023-04-18T02:56:59.269Z,8.1289
2023-04-18T02:58:00.884Z,8.1317
2023-04-18T02:59:02.506Z,8.1254
2023-04-18T03:00:04.182Z,8.0748
2023-04-18T03:01:05.875Z,8.0746
2023-04-18T03:02:07.440Z,8.0600
2023-04-18T03:03:09.140Z,8.0333
2023-04-18T03:04:10.748Z,8.0278
2023-04-18T03:05:12.495Z,8.0379
2023-04-18T03:06:14.084Z,8.0674
2023-04-18T03:07:15.687Z,8.1139
2023-04-18T03:08:17.335Z,8.1211
2023-04-18T03:09:18.971Z,8.0861
2023-04-18T03:10:20.590Z,8.0537
2023-04-18T03:11:22.291Z,8.0313
2023-04-18T03:12:23.948Z,8.0500
2023-04-18T03:13:25.551Z,8.0510
2023-04-18T03:14:27.235Z,8.0198
2023-04-18T03:15:28.874Z,8.0196
2023-04-18T03:16:30.571Z,8.0210
2023-04-18T03:17:32.194Z,8.0280
2023-04-18T03:18:33.969Z,8.0348
2023-04-18T03:19:35.435Z,8.0175
2023-04-18T03:20:37.104Z,8.0112
2023-04-18T03:21:38.762Z,8.0079
2023-04-18T03:22:40.353Z,8.0165
2023-04-18T03:23:42.019Z,8.0399
2023-04-18T03:24:43.635Z,8.0194
2023-04-18T03:25:45.299Z,8.0303
2023-04-18T03:26:46.954Z,8.0120
2023-04-18T03:27:48.580Z,7.9929
2023-04-18T03:28:50.219Z,8.0134
2023-04-18T03:29:51.844Z,8.0163
2023-04-18T03:30:53.596Z,8.0066
2023-04-18T03:31:55.163Z,8.0247
2023-04-18T03:32:57.015Z,8.0619
2023-04-18T03:33:58.433Z,8.0808
2023-04-18T03:35:00.055Z,8.0434
2023-04-18T03:36:01.695Z,8.0412
2023-04-18T03:37:03.392Z,8.0705
2023-04-18T03:38:04.975Z,8.1213
2023-04-18T03:39:06.616Z,8.1093
2023-04-18T03:40:08.234Z,8.0960
2023-04-18T03:41:09.895Z,8.0800
2023-04-18T03:42:11.590Z,8.0607
2023-04-18T03:43:13.178Z,8.0366
2023-04-18T03:44:15.068Z,8.0611
2023-04-18T03:45:16.458Z,8.0475
2023-04-18T03:46:18.124Z,8.0843
2023-04-18T03:47:20.078Z,8.0985
2023-04-18T03:48:21.422Z,8.0995
2023-04-18T03:49:23.052Z,8.1502
2023-04-18T03:50:24.683Z,8.1342
2023-04-18T03:51:26.330Z,8.1091
2023-04-18T03:52:29.700Z,8.1223
2023-04-18T03:53:29.655Z,8.0792
2023-04-18T03:54:31.280Z,8.1180
2023-04-18T03:55:32.904Z,8.1182
2023-04-18T03:56:34.539Z,8.1063
2023-04-18T03:57:36.196Z,8.0962
2023-04-18T03:58:37.855Z,8.1155
2023-04-18T03:59:39.481Z,8.1309
2023-04-18T04:00:41.140Z,8.1309
2023-04-18T04:01:42.950Z,8.1599
2023-04-18T04:02:44.582Z,8.1704
2023-04-18T04:03:46.238Z,8.1860
2023-04-18T04:04:48.012Z,8.1591
2023-04-18T04:05:49.343Z,8.1235
2023-04-18T04:06:50.979Z,8.1287
2023-04-18T04:07:52.622Z,8.1402
2023-04-18T04:08:54.318Z,8.1287
2023-04-18T04:09:55.947Z,8.0995
2023-04-18T04:10:57.578Z,8.0870
2023-04-18T04:11:59.239Z,8.0557
2023-04-18T04:13:00.821Z,8.0414
2023-04-18T04:14:02.521Z,8.0732
2023-04-18T04:15:04.140Z,8.1149
2023-04-18T04:16:05.863Z,8.1264
2023-04-18T04:17:07.407Z,8.1079
2023-04-18T04:18:09.144Z,8.0822
2023-04-18T04:19:10.740Z,8.0346
2023-04-18T04:20:12.367Z,8.0260
2023-04-18T04:21:14.031Z,8.0079
2023-04-18T04:22:15.671Z,8.0280
2023-04-18T04:23:17.314Z,8.0153
2023-04-18T04:24:18.985Z,8.0272
2023-04-18T04:25:20.582Z,8.0317
2023-04-18T04:26:22.263Z,8.0469
2023-04-18T04:27:23.843Z,8.0412
2023-04-18T04:28:25.622Z,8.0726
2023-04-18T04:29:27.176Z,8.0315
2023-04-18T04:30:28.800Z,8.0114
2023-04-18T04:31:30.509Z,8.0420
2023-04-18T04:32:32.133Z,8.0822
2023-04-18T04:33:33.773Z,8.0336
2023-04-18T04:34:35.434Z,8.0685
2023-04-18T04:35:37.027Z,8.0995
2023-04-18T04:36:38.675Z,8.1285
2023-04-18T04:37:40.297Z,8.1352
2023-04-18T04:38:41.954Z,8.1204
2023-04-18T04:39:43.658Z,8.1124
2023-04-18T04:40:45.236Z,8.1547
2023-04-18T04:41:46.883Z,8.2098
2023-04-18T04:42:48.543Z,8.2414
2023-04-18T04:43:50.197Z,8.2336
2023-04-18T04:44:51.901Z,8.2121
2023-04-18T04:45:53.536Z,8.2108
2023-04-18T04:46:55.137Z,8.1882
2023-04-18T04:47:56.747Z,8.1656
2023-04-18T04:48:58.493Z,8.1326
2023-04-18T04:50:00.025Z,8.1268
2023-04-18T04:51:01.699Z,8.1418
2023-04-18T04:52:03.375Z,8.1054
2023-04-18T04:53:04.980Z,8.1375
2023-04-18T04:54:06.592Z,8.1882
2023-04-18T04:55:08.283Z,8.1950
2023-04-18T04:56:09.918Z,8.1858
2023-04-18T04:57:11.561Z,8.1837
2023-04-18T04:58:13.202Z,8.1849
2023-04-18T04:59:14.872Z,8.1535
2023-04-18T05:00:16.490Z,8.1241
2023-04-18T05:01:18.166Z,8.1395
2023-04-18T05:02:19.831Z,8.1644
2023-04-18T05:03:21.522Z,8.1858
2023-04-18T05:04:23.257Z,8.1872
2023-04-18T05:05:24.676Z,8.1656
2023-04-18T05:06:26.349Z,8.2086
2023-04-18T05:07:27.995Z,8.2082
2023-04-18T05:08:29.594Z,8.1812
2023-04-18T05:09:31.318Z,8.1817
2023-04-18T05:10:32.901Z,8.2008
2023-04-18T05:11:34.612Z,8.2213
2023-04-18T05:12:36.191Z,8.1925
2023-04-18T05:13:37.833Z,8.2061
2023-04-18T05:14:39.524Z,8.2369
2023-04-18T05:15:41.269Z,8.2650
2023-04-18T05:16:42.799Z,8.3207
2023-04-18T05:17:44.468Z,8.3620
2023-04-18T05:18:46.059Z,8.4008
2023-04-18T05:19:47.750Z,8.4394
2023-04-18T05:20:49.326Z,8.4645
2023-04-18T05:21:51.137Z,8.4772
2023-04-18T05:22:52.589Z,8.5035
2023-04-18T05:23:54.278Z,8.4516
2023-04-18T05:24:55.912Z,8.5005
2023-04-18T05:25:57.564Z,8.5228
2023-04-18T05:26:59.176Z,8.5487
2023-04-18T05:28:00.840Z,8.5639
2023-04-18T05:29:02.455Z,8.5226
2023-04-18T05:30:04.179Z,8.4828
2023-04-18T05:31:05.769Z,8.5206
2023-04-18T05:32:07.398Z,8.4616
2023-04-18T05:33:09.026Z,8.4341
2023-04-18T05:34:10.664Z,8.4622
2023-04-18T05:35:12.386Z,8.4627
2023-04-18T05:36:13.999Z,8.4551
2023-04-18T05:37:15.652Z,8.4635
2023-04-18T05:38:17.279Z,8.4904
2023-04-18T05:39:18.957Z,8.5165
2023-04-18T05:40:20.601Z,8.5311
2023-04-18T05:41:22.224Z,8.5068
2023-04-18T05:42:23.886Z,8.5551
2023-04-18T05:43:25.514Z,8.5323
2023-04-18T05:44:27.161Z,8.5652
2023-04-18T05:45:28.929Z,8.5929
2023-04-18T05:46:31.199Z,8.6122
2023-04-18T05:47:32.210Z,8.6103
2023-04-18T05:48:33.821Z,8.5954
2023-04-18T05:49:35.497Z,8.6424
2023-04-18T05:50:37.171Z,8.6025
2023-04-18T05:51:38.765Z,8.5939
2023-04-18T05:52:40.393Z,8.6116
2023-04-18T05:53:42.060Z,8.6258
2023-04-18T05:54:43.763Z,8.6876
2023-04-18T05:55:45.408Z,8.7165
2023-04-18T05:56:47.034Z,8.7005
2023-04-18T05:57:48.624Z,8.6962
2023-04-18T05:58:50.274Z,8.6993
2023-04-18T05:59:51.907Z,8.6391
2023-04-18T06:00:53.630Z,8.6091
2023-04-18T06:01:55.274Z,8.5619
2023-04-18T06:02:57.056Z,8.5613
2023-04-18T06:03:58.640Z,8.5960
2023-04-18T06:05:00.436Z,8.6455
2023-04-18T06:06:01.972Z,8.6648
2023-04-18T06:07:03.440Z,8.6763
2023-04-18T06:08:05.098Z,8.6952
2023-04-18T06:09:06.739Z,8.7167
2023-04-18T06:10:08.384Z,8.7213
2023-04-18T06:11:10.149Z,8.7180
2023-04-18T06:12:11.772Z,8.7525
2023-04-18T06:13:13.312Z,8.7373
2023-04-18T06:14:15.483Z,8.7258
2023-04-18T06:15:16.582Z,8.7165
2023-04-18T06:16:18.338Z,8.7246
2023-04-18T06:17:19.834Z,8.7584
2023-04-18T06:18:21.506Z,8.7704
2023-04-18T06:19:23.193Z,8.7780
2023-04-18T06:20:24.781Z,8.7706
2023-04-18T06:21:26.502Z,8.7716
2023-04-18T06:22:28.051Z,8.7243
2023-04-18T06:23:29.919Z,8.7763
2023-04-18T06:24:31.402Z,8.8223
2023-04-18T06:25:33.020Z,8.8367
2023-04-18T06:26:34.771Z,8.8739
2023-04-18T06:27:36.305Z,8.9308
2023-04-18T06:28:37.973Z,8.9144
2023-04-18T06:29:39.588Z,8.9020
2023-04-18T06:30:41.237Z,8.9035
2023-04-18T06:31:42.998Z,8.9372
2023-04-18T06:32:44.557Z,8.9727
2023-04-18T06:33:46.209Z,8.9988
2023-04-18T06:34:47.779Z,8.9581
2023-04-18T06:35:49.475Z,8.9480
2023-04-18T06:36:51.208Z,8.9737
2023-04-18T06:37:52.628Z,8.9986
2023-04-18T06:38:54.315Z,8.9910
2023-04-18T06:39:55.944Z,9.0103
2023-04-18T06:40:57.570Z,8.9754
2023-04-18T06:41:59.247Z,8.8710
2023-04-18T06:43:00.853Z,8.8550
2023-04-18T06:44:04.464Z,8.8225
2023-04-18T06:45:04.126Z,8.8402
2023-04-18T06:46:05.867Z,8.7882
2023-04-18T06:47:07.428Z,8.7905
2023-04-18T06:48:09.166Z,8.7609
2023-04-18T06:49:10.724Z,8.7492
2023-04-18T06:50:12.338Z,8.7687
2023-04-18T06:51:13.960Z,8.7490
2023-04-18T06:52:15.660Z,8.8127
2023-04-18T06:53:17.265Z,8.8527
2023-04-18T06:54:18.907Z,8.8872
2023-04-18T06:55:20.530Z,8.8739
2023-04-18T06:56:22.184Z,8.8770
2023-04-18T06:57:23.847Z,8.9144
2023-04-18T06:58:25.456Z,8.8755
2023-04-18T06:59:27.143Z,8.8244
2023-04-18T07:00:28.857Z,8.7794
2023-04-18T07:01:30.461Z,8.7677
2023-04-18T07:02:32.168Z,8.7697
2023-04-18T07:03:33.800Z,8.7233
2023-04-18T07:04:35.338Z,8.6792
2023-04-18T07:05:36.972Z,8.6576
2023-04-18T07:06:38.605Z,8.6870
2023-04-18T07:07:40.298Z,8.7013
2023-04-18T07:08:41.917Z,8.6824
2023-04-18T07:09:43.534Z,8.6718
2023-04-18T07:10:45.152Z,8.6964
2023-04-18T07:11:46.835Z,8.7630
2023-04-18T07:12:48.521Z,8.8546
2023-04-18T07:13:50.132Z,8.9480
2023-04-18T07:14:51.729Z,8.9357
2023-04-18T07:15:53.407Z,8.9507
2023-04-18T07:16:55.052Z,8.9466
2023-04-18T07:17:56.742Z,8.9945
2023-04-18T07:18:58.318Z,9.0214
2023-04-18T07:19:59.945Z,9.0173
2023-04-18T07:21:01.572Z,8.9530
2023-04-18T07:22:03.215Z,9.0060
2023-04-18T07:23:04.882Z,8.9585
2023-04-18T07:24:06.541Z,8.9641
2023-04-18T07:25:08.163Z,8.9583
2023-04-18T07:26:09.793Z,8.9854
2023-04-18T07:27:11.478Z,9.0279
2023-04-18T07:28:13.147Z,9.0955
2023-04-18T07:29:14.768Z,9.1185
2023-04-18T07:30:16.357Z,9.1282
2023-04-18T07:31:18.064Z,9.1995
2023-04-18T07:32:19.681Z,9.2208
2023-04-18T07:33:21.348Z,9.2251
2023-04-18T07:34:23.008Z,9.1617
2023-04-18T07:35:24.553Z,9.1995
2023-04-18T07:36:26.317Z,9.1463
2023-04-18T07:37:27.931Z,9.1142
2023-04-18T07:38:29.576Z,9.1795
2023-04-18T07:39:31.169Z,9.2738
2023-04-18T07:40:32.781Z,9.3065
2023-04-18T07:41:34.446Z,9.2321
2023-04-18T07:42:36.072Z,9.1890
2023-04-18T07:43:37.774Z,9.2533
2023-04-18T07:44:39.328Z,9.3083
2023-04-18T07:45:41.032Z,9.3287
2023-04-18T07:46:42.736Z,9.3114
2023-04-18T07:47:44.340Z,9.2566
2023-04-18T07:48:45.946Z,9.2668
2023-04-18T07:49:47.555Z,9.3204
2023-04-18T07:50:49.207Z,9.4201
2023-04-18T07:51:50.856Z,9.5164
2023-04-18T07:52:52.472Z,9.5511
2023-04-18T07:53:54.158Z,9.5359
2023-04-18T07:54:55.772Z,9.4897
2023-04-18T07:55:57.389Z,9.4895
2023-04-18T07:56:59.021Z,9.4572
2023-04-18T07:58:00.664Z,9.5316
2023-04-18T07:59:02.385Z,9.5495
2023-04-18T08:00:03.950Z,9.4747
2023-04-18T08:01:05.602Z,9.4260
2023-04-18T08:02:07.284Z,9.4266
2023-04-18T08:03:09.036Z,9.4907
2023-04-18T08:04:10.722Z,9.6232
2023-04-18T08:05:12.234Z,9.7395
2023-04-18T08:06:13.809Z,9.7046
2023-04-18T08:07:15.414Z,9.6376
2023-04-18T08:08:17.115Z,9.6376
2023-04-18T08:09:18.683Z,9.6655
2023-04-18T08:10:21.357Z,9.7812
2023-04-18T08:11:21.978Z,9.8512
2023-04-18T08:12:23.582Z,9.8364
2023-04-18T08:13:25.250Z,9.9211
2023-04-18T08:14:26.856Z,10.0538
2023-04-18T08:15:28.509Z,10.0735
2023-04-18T08:16:30.197Z,10.1487
2023-04-18T08:17:31.835Z,10.2518
2023-04-18T08:18:33.452Z,10.3109
2023-04-18T08:19:35.045Z,10.2690
2023-04-18T08:20:36.703Z,10.1425
2023-04-18T08:21:38.298Z,10.1756
2023-04-18T08:22:53.830Z,10.3738
2023-04-18T08:23:41.638Z,10.5303
2023-04-18T08:25:01.052Z,10.4416
2023-04-18T08:25:44.818Z,10.3142
2023-04-18T08:26:46.524Z,10.2850
2023-04-18T08:27:48.147Z,10.2450
2023-04-18T08:28:49.773Z,10.2115
2023-04-18T08:29:51.396Z,10.3046
2023-04-18T08:30:53.053Z,10.2136
2023-04-18T08:31:54.690Z,10.2049
2023-04-18T08:32:56.301Z,10.2963
2023-04-18T08:33:57.936Z,10.3949
2023-04-18T08:34:59.570Z,10.5022
2023-04-18T08:36:01.235Z,10.4687
2023-04-18T08:37:02.827Z,10.3923
2023-04-18T08:38:04.452Z,10.2655
2023-04-18T08:39:06.167Z,10.1466
2023-04-18T08:40:07.783Z,10.0704
2023-04-18T08:41:09.376Z,10.0369
2023-04-18T08:42:11.049Z,10.0745
2023-04-18T08:43:12.657Z,10.0511
2023-04-18T08:44:14.552Z,10.0829
2023-04-18T08:45:15.946Z,10.0774
2023-04-18T08:46:17.619Z,10.1088
2023-04-18T08:47:19.203Z,10.1273
2023-04-18T08:48:20.833Z,10.1045
2023-04-18T08:49:22.499Z,10.1686
2023-04-18T08:50:24.181Z,10.1676
2023-04-18T08:51:25.753Z,10.1289
2023-04-18T08:52:27.410Z,10.2546
2023-04-18T08:53:28.998Z,10.4126
2023-04-18T08:54:30.708Z,10.4321
2023-04-18T08:55:32.289Z,10.4514
2023-04-18T08:56:34.038Z,10.5192
2023-04-18T08:57:35.585Z,10.5572
2023-04-18T08:58:37.322Z,10.5960
2023-04-18T08:59:39.074Z,10.4451
2023-04-18T09:00:40.550Z,10.2655
2023-04-18T09:01:42.245Z,10.2875
2023-04-18T09:02:44.270Z,10.3337
2023-04-18T09:03:45.465Z,10.3233
2023-04-18T09:04:47.128Z,10.2620
2023-04-18T09:05:48.735Z,10.2520
2023-04-18T09:06:50.369Z,10.2824
2023-04-18T09:07:52.042Z,10.4126
2023-04-18T09:08:53.644Z,10.4607
2023-04-18T09:09:55.286Z,10.4299
2023-04-18T09:10:56.889Z,10.4278
2023-04-18T09:11:58.527Z,10.4827
2023-04-18T09:13:00.134Z,10.5774
2023-04-18T09:14:01.776Z,10.6164
2023-04-18T09:15:03.442Z,10.6536
2023-04-18T09:16:05.065Z,10.6928
2023-04-18T09:17:06.878Z,10.6844
2023-04-18T09:18:08.396Z,10.7316
2023-04-18T09:19:09.941Z,10.7386
2023-04-18T09:20:11.627Z,10.7330
2023-04-18T09:21:13.203Z,10.7963
2023-04-18T09:22:14.852Z,10.9105
2023-04-18T09:23:16.483Z,10.9140
2023-04-18T09:24:18.191Z,10.8968
2023-04-18T09:25:19.791Z,10.9650
2023-04-18T09:26:21.277Z,11.0062
2023-04-18T09:27:22.964Z,10.9771
2023-04-18T09:28:24.576Z,10.9374
2023-04-18T09:29:26.224Z,10.8731
2023-04-18T09:30:27.912Z,10.9241
2023-04-18T09:31:29.503Z,11.0032
2023-04-18T09:32:31.171Z,11.0270
2023-04-18T09:33:32.772Z,11.0806
2023-04-18T09:34:34.376Z,11.1624
2023-04-18T09:35:36.049Z,11.0531
2023-04-18T09:36:37.741Z,10.8752
2023-04-18T09:37:39.341Z,10.8150
2023-04-18T09:38:41.204Z,10.8454
2023-04-18T09:39:42.633Z,10.8485
2023-04-18T09:40:44.459Z,10.8540
2023-04-18T09:41:45.905Z,10.8267
2023-04-18T09:42:47.499Z,10.8731
2023-04-18T09:43:49.194Z,10.9450
2023-04-18T09:44:50.729Z,11.0970
2023-04-18T09:45:52.416Z,11.0518
2023-04-18T09:46:54.013Z,11.0738
2023-04-18T09:47:55.695Z,10.9832
2023-04-18T09:48:57.264Z,10.8598
2023-04-18T09:49:58.896Z,10.8503
2023-04-18T09:51:00.568Z,10.8770
2023-04-18T09:52:02.146Z,10.9660
2023-04-18T09:53:03.832Z,10.9545
2023-04-18T09:54:05.442Z,10.9719
2023-04-18T09:55:07.061Z,10.9553
2023-04-18T09:56:08.737Z,10.9163
2023-04-18T09:57:10.340Z,10.9076
2023-04-18T09:58:11.946Z,10.8746
2023-04-18T09:59:13.788Z,10.9403
2023-04-18T10:00:15.235Z,10.9099
2023-04-18T10:01:16.920Z,11.0093
2023-04-18T10:02:19.353Z,11.0280
2023-04-18T10:03:20.326Z,11.0319
2023-04-18T10:04:21.958Z,11.1225
2023-04-18T10:05:23.514Z,11.3509
2023-04-18T10:06:25.211Z,11.5027
2023-04-18T10:07:26.673Z,11.5537
2023-04-18T10:08:28.293Z,11.4419
2023-04-18T10:09:29.948Z,11.3945
2023-04-18T10:10:31.578Z,11.4319
2023-04-18T10:11:33.231Z,11.4302
2023-04-18T10:12:34.852Z,11.3105
2023-04-18T10:13:36.490Z,11.2583
2023-04-18T10:14:38.111Z,11.3185
2023-04-18T10:15:40.749Z,11.4115
2023-04-18T10:16:41.499Z,11.4760
2023-04-18T10:17:56.012Z,11.4729
2023-04-18T10:18:44.706Z,11.4604
2023-04-18T10:19:46.287Z,11.4224
2023-04-18T10:20:47.955Z,11.3914
2023-04-18T10:21:49.607Z,11.4204
2023-04-18T10:22:51.252Z,11.5387
2023-04-18T10:23:52.880Z,11.3517
2023-04-18T10:24:54.540Z,11.3047
2023-04-18T10:25:56.148Z,11.4099
2023-04-18T10:26:57.827Z,11.4419
2023-04-18T10:27:59.407Z,11.4152
2023-04-18T10:29:01.056Z,11.3842
2023-04-18T10:30:02.688Z,11.3524
2023-04-18T10:31:04.412Z,11.2186
2023-04-18T10:32:06.012Z,11.1589
2023-04-18T10:33:10.592Z,11.2012
2023-04-18T10:34:09.251Z,11.1367
2023-04-18T10:35:10.912Z,11.1545
2023-04-18T10:36:12.537Z,11.1915
2023-04-18T10:37:14.218Z,11.2166
2023-04-18T10:38:15.823Z,11.2597
2023-04-18T10:39:17.493Z,11.2536
2023-04-18T10:40:19.103Z,11.2887
2023-04-18T10:41:20.752Z,11.2836
2023-04-18T10:42:22.561Z,11.3772
2023-04-18T10:43:24.118Z,11.4848
2023-04-18T10:44:25.748Z,11.4826
2023-04-18T10:45:27.387Z,11.4881
2023-04-18T10:46:32.458Z,11.4799
2023-04-18T10:47:30.860Z,11.5578
2023-04-18T10:48:32.329Z,11.6009
2023-04-18T10:49:33.959Z,11.6212
2023-04-18T10:50:35.615Z,11.5413
2023-04-18T10:51:37.321Z,11.5438
2023-04-18T10:52:38.976Z,11.4978
2023-04-18T10:53:40.559Z,11.4259
2023-04-18T10:54:42.167Z,11.3470
2023-04-18T10:55:43.806Z,11.4130
2023-04-18T10:56:45.509Z,11.4547
2023-04-18T10:57:47.299Z,11.4604
2023-04-18T10:58:48.791Z,11.5974
2023-04-18T10:59:50.442Z,11.7722
2023-04-18T11:00:52.084Z,11.8801
2023-04-18T11:01:53.783Z,11.8708
2023-04-18T11:02:55.489Z,11.8911
2023-04-18T11:03:57.170Z,11.9628
2023-04-18T11:04:58.597Z,12.0286
2023-04-18T11:06:00.245Z,12.0160
2023-04-18T11:07:01.889Z,12.1185
2023-04-18T11:08:03.669Z,12.1752
2023-04-18T11:09:05.139Z,12.0495
2023-04-18T11:10:06.806Z,11.9988
2023-04-18T11:11:08.457Z,11.9579
2023-04-18T11:12:10.069Z,11.9472
2023-04-18T11:13:11.735Z,11.9105
2023-04-18T11:14:13.523Z,11.8887
2023-04-18T11:15:14.984Z,11.8846
2023-04-18T11:16:16.674Z,11.9129
2023-04-18T11:17:18.289Z,11.9538
2023-04-18T11:18:19.960Z,12.0526
2023-04-18T11:19:21.528Z,12.1633
2023-04-18T11:20:23.095Z,12.2138
2023-04-18T11:21:24.757Z,12.2601
2023-04-18T11:22:26.360Z,12.1524
2023-04-18T11:23:28.100Z,12.2266
2023-04-18T11:24:29.659Z,12.2718
2023-04-18T11:25:31.302Z,12.2701
2023-04-18T11:26:32.940Z,12.2872
2023-04-18T11:27:34.572Z,12.1906
2023-04-18T11:28:36.260Z,12.1344
2023-04-18T11:29:37.877Z,12.0799
2023-04-18T11:30:39.528Z,11.9448
2023-04-18T11:31:41.299Z,11.9688
2023-04-18T11:32:42.867Z,12.0450
2023-04-18T11:33:44.457Z,12.1095
2023-04-18T11:34:46.067Z,12.2595
2023-04-18T11:35:47.727Z,12.2938
2023-04-18T11:36:49.320Z,12.2313
2023-04-18T11:37:50.967Z,12.2765
2023-04-18T11:38:52.651Z,12.2344
2023-04-18T11:39:54.291Z,12.1851
2023-04-18T11:40:56.045Z,12.1142
2023-04-18T11:41:57.556Z,12.1335
2023-04-18T11:42:59.189Z,12.0853
2023-04-18T11:44:00.844Z,12.1146
2023-04-18T11:45:02.456Z,12.2182
2023-04-18T11:46:04.129Z,12.3120
2023-04-18T11:47:05.761Z,12.3650
2023-04-18T11:48:07.405Z,12.3381
2023-04-18T11:49:09.069Z,12.2654
2023-04-18T11:50:10.676Z,12.2334
2023-04-18T11:51:12.320Z,12.3659
2023-04-18T11:52:13.927Z,12.4967
2023-04-18T11:53:15.575Z,12.5522
2023-04-18T11:54:17.237Z,12.5912
2023-04-18T11:55:18.859Z,12.7278
2023-04-18T11:56:20.493Z,12.8482
2023-04-18T11:57:22.130Z,12.9919
2023-04-18T11:58:23.922Z,12.9815
2023-04-18T11:59:25.581Z,12.8683
2023-04-18T12:00:27.065Z,12.7307
2023-04-18T12:01:28.749Z,12.6629
2023-04-18T12:02:30.392Z,12.6341
2023-04-18T12:03:32.128Z,12.6676
2023-04-18T12:04:33.801Z,12.7428
2023-04-18T12:05:35.397Z,12.8740
2023-04-18T12:06:36.900Z,13.0067
2023-04-18T12:07:38.539Z,13.0174
2023-04-18T12:08:40.192Z,12.9624
2023-04-18T12:09:42.679Z,13.0388
2023-04-18T12:10:43.461Z,13.0595
2023-04-18T12:11:45.104Z,13.0262
2023-04-18T12:12:46.974Z,12.9948
2023-04-18T12:13:48.371Z,13.0306
2023-04-18T12:14:50.201Z,13.0667
2023-04-18T12:15:51.721Z,13.0612
2023-04-18T12:16:53.286Z,13.0963
2023-04-18T12:17:54.923Z,13.0819
2023-04-18T12:18:56.553Z,13.1109
2023-04-18T12:19:58.231Z,13.1793
2023-04-18T12:20:59.827Z,13.2746
2023-04-18T12:22:01.522Z,13.3750
2023-04-18T12:23:03.152Z,13.3444
2023-04-18T12:24:04.785Z,13.3489
2023-04-18T12:25:06.429Z,13.2711
2023-04-18T12:26:08.161Z,13.3360
2023-04-18T12:27:09.779Z,13.3418
2023-04-18T12:28:11.427Z,13.2929
2023-04-18T12:29:13.360Z,13.3313
2023-04-18T12:30:14.804Z,13.4180
2023-04-18T12:31:16.374Z,13.3050
2023-04-18T12:32:17.941Z,13.2245
2023-04-18T12:33:19.588Z,13.2849
2023-04-18T12:34:21.637Z,13.3066
2023-04-18T12:35:22.922Z,13.2425
2023-04-18T12:36:24.534Z,13.2177
2023-04-18T12:37:26.141Z,13.2549
2023-04-18T12:38:27.789Z,13.3097
2023-04-18T12:39:29.411Z,13.2807
2023-04-18T12:40:31.160Z,13.2699